Terminal Aerodrome Forecast
Issued by NWS

Home | Current Version | Previous Version | Text Only | Print | Product List | Glossary On
Versions: 1 2 3 4 5 6 7 8 9 10 11 12 13 14 15 16 17 18 19
000
FTUS41 KGYX 240000 AAA
TAFLEB
TAF AMD
KLEB 240059Z 2401/2424 VRB03KT 4SM -SHRA SCT040 BKN100
     FM240200 30005KT P6SM SCT040 BKN100
     FM240500 VRB03KT 2SM BR BKN002 BKN100
     FM241200 34006KT P6SM SCT040 SCT120=

USA.gov is the U.S. government's official web portal to all federal, state and local government web resources and services.